Time;durP1;ratioP1;P1;durP2;ratioP2;P2;SDS_P1;SDS_P2;PMS_P1;PMS_P2;Temp;Humidity;BMP_temperature;BMP_pressure;BME280_temperature;BME280_humidity;BME280_pressure;Samples;Min_cycle;Max_cycle;Signal;HPM_P1;HPM_P2
2023/09/21 00:02:26;;;;;;;1.90;1.53;;;;;;;16.84;84.94;99891.34;5050556;28;20127;-82
2023/09/21 00:04:52;;;;;;;4.32;1.98;;;;;;;16.86;84.97;99894.72;5052490;28;20025;-82
2023/09/21 00:07:18;;;;;;;2.10;1.80;;;;;;;16.86;84.63;99889.50;5051166;28;20039;-81
2023/09/21 00:09:44;;;;;;;2.47;2.00;;;;;;;16.86;84.67;99886.03;5052078;28;20400;-82
2023/09/21 00:12:10;;;;;;;2.08;1.88;;;;;;;16.89;84.87;99886.69;5051968;28;20091;-82
2023/09/21 00:14:35;;;;;;;4.25;2.28;;;;;;;16.94;84.13;99884.69;5051523;28;20021;-81
2023/09/21 00:17:01;;;;;;;4.00;2.30;;;;;;;16.89;84.40;99880.63;5052187;28;20025;-81
2023/09/21 00:19:32;;;;;;;3.33;2.20;;;;;;;16.92;84.48;99870.81;5051580;28;20091;-81
2023/09/21 00:21:57;;;;;;;2.67;1.95;;;;;;;16.93;84.47;99880.38;5055175;28;20025;-82
2023/09/21 00:24:23;;;;;;;1.97;1.73;;;;;;;16.93;84.52;99874.25;5055509;28;20020;-81
2023/09/21 00:26:50;;;;;;;2.57;1.73;;;;;;;16.92;84.52;99862.94;5055810;28;20025;-82
2023/09/21 00:29:30;;;;;;;2.65;1.83;;;;;;;16.85;84.46;99850.28;5046034;28;20040;-81
2023/09/21 00:31:57;;;;;;;1.80;1.70;;;;;;;16.92;84.30;99859.47;5055595;28;20057;-81
2023/09/21 00:34:24;;;;;;;2.25;1.90;;;;;;;16.98;84.10;99856.53;5055555;28;20118;-81
2023/09/21 00:36:50;;;;;;;;;;;;;;;16.99;84.04;99853.00;5055160;28;20029;-81
2023/09/21 00:39:35;;;;;;;2.00;1.80;;;;;;;16.98;83.64;99856.53;5045217;28;19934;-82
2023/09/21 00:42:00;;;;;;;3.10;2.10;;;;;;;16.93;83.61;99841.06;5055011;28;20275;-81
2023/09/21 00:44:26;;;;;;;1.80;1.70;;;;;;;16.99;83.24;99839.88;5054171;28;20417;-82
2023/09/21 00:46:52;;;;;;;2.17;1.80;;;;;;;16.98;83.59;99835.56;5055161;28;20523;-82
2023/09/21 00:49:35;;;;;;;1.75;1.60;;;;;;;17.02;83.59;99828.38;5054996;28;20029;-81
2023/09/21 00:52:01;;;;;;;3.47;1.88;;;;;;;17.02;83.51;99834.44;5055544;28;20036;-81
2023/09/21 00:54:27;;;;;;;2.80;1.73;;;;;;;17.04;83.48;99834.38;5055145;28;20033;-82
2023/09/21 00:56:53;;;;;;;2.20;1.80;;;;;;;17.01;82.66;99826.69;5054543;28;20155;-82
2023/09/21 00:59:35;;;;;;;2.20;1.80;;;;;;;17.02;83.24;99821.34;5054907;28;20033;-82
2023/09/21 01:02:01;;;;;;;2.30;1.80;;;;;;;17.02;83.15;99816.09;5055177;28;20105;-82
2023/09/21 01:04:26;;;;;;;2.37;1.80;;;;;;;17.04;83.13;99809.00;5054010;28;20029;-81
2023/09/21 01:06:52;;;;;;;1.87;1.67;;;;;;;17.04;83.34;99809.00;5054942;28;20416;-81
2023/09/21 01:09:17;;;;;;;2.27;1.80;;;;;;;17.04;82.95;99811.63;5054476;28;20033;-81
2023/09/21 01:11:42;;;;;;;1.50;1.40;;;;;;;17.04;83.34;99809.00;5054300;28;20025;-81
2023/09/21 01:14:08;;;;;;;1.50;1.40;;;;;;;17.04;82.99;99809.00;5054969;28;20096;-82
2023/09/21 01:16:33;;;;;;;1.50;1.40;;;;;;;17.04;83.18;99802.91;5054611;28;20461;-82
2023/09/21 01:19:07;;;;;;;2.10;1.90;;;;;;;16.93;82.79;99786.03;5053304;28;20039;-82
2023/09/21 01:21:37;;;;;;;2.70;1.83;;;;;;;16.91;82.81;99777.41;5054720;28;20386;-82
2023/09/21 01:24:03;;;;;;;2.00;1.85;;;;;;;17.00;82.61;99793.53;5054593;28;20051;-82
2023/09/21 01:26:29;;;;;;;1.88;1.67;;;;;;;17.00;82.82;99789.13;5054252;28;20025;-82
2023/09/21 01:28:58;;;;;;;1.73;1.20;;;;;;;16.98;82.74;99785.78;5054742;28;20041;-82
2023/09/21 01:31:24;;;;;;;1.70;1.60;;;;;;;16.98;82.96;99783.97;5053881;28;20029;-81
2023/09/21 01:33:49;;;;;;;1.97;1.77;;;;;;;16.95;82.64;99772.84;5053672;28;20031;-81
2023/09/21 01:36:16;;;;;;;2.80;1.87;;;;;;;16.95;82.33;99775.47;5054111;28;20063;-81
2023/09/21 01:38:46;;;;;;;1.70;1.60;;;;;;;16.96;82.48;99766.66;5054290;28;20021;-81
2023/09/21 01:41:14;;;;;;;1.30;1.20;;;;;;;16.96;82.77;99771.91;5054309;28;20025;-81
2023/09/21 01:43:39;;;;;;;1.65;1.55;;;;;;;16.93;82.95;99764.19;5054444;28;20462;-81
2023/09/21 01:46:05;;;;;;;1.50;1.40;;;;;;;16.90;83.28;99769.59;5053374;28;20036;-81
2023/09/21 01:48:32;;;;;;;1.80;1.40;;;;;;;16.87;83.06;99764.56;5053787;28;20102;-81
2023/09/21 01:50:57;;;;;;;1.23;1.15;;;;;;;16.85;82.89;99762.03;5053927;28;20470;-82
2023/09/21 01:53:23;;;;;;;1.17;1.07;;;;;;;16.83;83.31;99762.13;5053289;28;20029;-82
2023/09/21 01:55:50;;;;;;;1.60;1.40;;;;;;;16.81;83.49;99758.75;5054446;28;20059;-82
2023/09/21 01:58:18;;;;;;;1.50;1.40;;;;;;;16.79;82.80;99755.34;5054943;28;20107;-81
2023/09/21 02:00:48;;;;;;;1.13;1.13;;;;;;;16.79;83.27;99759.78;5058320;28;20484;-81
2023/09/21 02:03:17;;;;;;;1.40;1.20;;;;;;;16.74;83.15;99746.94;5073452;28;20055;-81
2023/09/21 02:05:43;;;;;;;1.15;1.10;;;;;;;16.75;83.27;99753.88;5073737;28;20488;-81
2023/09/21 02:08:11;;;;;;;1.42;1.20;;;;;;;16.73;82.74;99752.25;5072511;28;20051;-82
2023/09/21 02:10:38;;;;;;;1.42;1.33;;;;;;;16.72;83.18;99746.19;5074334;28;20025;-82
2023/09/21 02:13:07;;;;;;;1.13;1.10;;;;;;;16.67;83.23;99742.97;5073420;28;20028;-82
2023/09/21 02:15:35;;;;;;;1.40;1.30;;;;;;;16.68;83.29;99749.91;5073023;28;20024;-82
2023/09/21 02:18:02;;;;;;;1.52;1.42;;;;;;;16.67;83.25;99742.97;5073312;28;20063;-81
2023/09/21 02:20:29;;;;;;;1.63;1.38;;;;;;;16.66;83.29;99743.94;5073687;28;20020;-82
2023/09/21 02:22:59;;;;;;;1.45;1.35;;;;;;;16.60;83.29;99739.91;5072874;28;20028;-81
2023/09/21 02:25:26;;;;;;;1.50;1.40;;;;;;;16.63;83.26;99738.88;5073285;28;20024;-81
2023/09/21 02:27:51;;;;;;;1.50;1.40;;;;;;;16.60;83.23;99739.03;5073452;28;20025;-81
2023/09/21 02:30:20;;;;;;;1.90;1.70;;;;;;;16.60;83.14;99734.66;5070705;28;20032;-82
2023/09/21 02:32:55;;;;;;;1.58;1.48;;;;;;;16.59;83.33;99730.34;5053657;28;20362;-82
2023/09/21 02:35:23;;;;;;;1.45;1.35;;;;;;;16.59;83.37;99724.25;5052083;28;20111;-81
2023/09/21 02:37:50;;;;;;;1.80;1.70;;;;;;;16.45;83.36;99711.97;5053292;28;20033;-82
2023/09/21 02:40:19;;;;;;;1.77;1.67;;;;;;;16.54;82.33;99721.91;5053103;28;20025;-81
2023/09/21 02:42:46;;;;;;;1.90;1.80;;;;;;;16.59;83.01;99719.88;5051891;28;20056;-81
2023/09/21 02:45:12;;;;;;;1.52;1.42;;;;;;;16.64;83.03;99719.59;5052875;28;20025;-82
2023/09/21 02:47:39;;;;;;;2.80;1.67;;;;;;;16.64;83.00;99723.06;5053611;28;20025;-81
2023/09/21 02:50:14;;;;;;;1.88;1.70;;;;;;;16.67;82.99;99719.41;5052287;28;20025;-82
2023/09/21 02:52:43;;;;;;;1.40;1.30;;;;;;;16.67;82.90;99725.50;5053149;28;20094;-82
2023/09/21 02:55:09;;;;;;;1.30;1.20;;;;;;;16.68;82.88;99716.72;5052475;28;20027;-81
2023/09/21 02:57:34;;;;;;;1.47;1.30;;;;;;;16.68;82.93;99721.94;5053399;28;20033;-81
2023/09/21 03:00:08;;;;;;;1.40;1.30;;;;;;;16.59;82.83;99698.06;5053116;28;20029;-82
2023/09/21 03:02:44;;;;;;;1.50;1.40;;;;;;;16.73;82.90;99715.56;5052800;28;20041;-81
2023/09/21 03:05:11;;;;;;;1.13;1.05;;;;;;;16.74;82.61;99720.75;5052294;28;20100;-81
2023/09/21 03:07:39;;;;;;;1.33;1.23;;;;;;;16.73;82.67;99700.72;5052825;28;20486;-81
2023/09/21 03:10:09;;;;;;;1.63;1.50;;;;;;;16.74;82.30;99707.66;5052518;28;20033;-82
2023/09/21 03:12:36;;;;;;;1.27;1.17;;;;;;;16.78;82.58;99703.06;5052549;28;20155;-82
2023/09/21 03:15:03;;;;;;;1.70;1.60;;;;;;;16.78;82.38;99706.50;5052856;28;20017;-82
2023/09/21 03:17:29;;;;;;;1.70;1.60;;;;;;;16.79;82.22;99707.38;5052440;28;20036;-82
2023/09/21 03:19:55;;;;;;;1.77;1.30;;;;;;;16.80;82.64;99702.03;5052362;28;20062;-82
2023/09/21 03:22:29;;;;;;;2.20;1.67;;;;;;;16.81;81.80;99711.56;5052679;28;20021;-81
2023/09/21 03:25:01;;;;;;;1.92;1.70;;;;;;;16.75;82.44;99692.75;5043675;28;20041;-81
2023/09/21 03:27:26;;;;;;;1.48;1.30;;;;;;;16.76;82.55;99695.31;5052571;28;20035;-82
2023/09/21 03:29:53;;;;;;;2.10;1.60;;;;;;;16.84;82.47;99702.69;5052507;28;20452;-82
2023/09/21 03:32:18;;;;;;;1.60;1.50;;;;;;;16.82;83.16;99694.94;5051561;28;20104;-82
2023/09/21 03:34:43;;;;;;;1.40;1.30;;;;;;;16.71;82.95;99684.25;5052585;28;20061;-82
2023/09/21 03:37:13;;;;;;;1.50;1.40;;;;;;;16.77;83.02;99702.22;5052007;28;20025;-81
2023/09/21 03:39:38;;;;;;;1.10;1.10;;;;;;;16.76;83.02;99700.53;5051887;28;20021;-82
2023/09/21 03:42:04;;;;;;;1.30;1.13;;;;;;;16.76;83.24;99705.78;5052289;28;20389;-82
2023/09/21 03:44:30;;;;;;;1.23;1.13;;;;;;;16.74;83.29;99696.31;5052311;28;20025;-81
2023/09/21 03:46:55;;;;;;;1.43;1.33;;;;;;;16.76;83.46;99704.94;5051444;28;20359;-82
2023/09/21 03:49:21;;;;;;;2.00;1.50;;;;;;;16.75;83.29;99696.25;5052332;28;20056;-81
2023/09/21 03:51:47;;;;;;;1.40;1.30;;;;;;;16.73;83.57;99685.00;5052458;28;20124;-82
2023/09/21 03:54:13;;;;;;;1.27;1.17;;;;;;;16.75;83.47;99693.63;5053187;28;20388;-81
2023/09/21 03:56:39;;;;;;;1.00;1.00;;;;;;;16.74;83.83;99680.59;5056120;28;20358;-81
2023/09/21 03:59:06;;;;;;;1.10;1.00;;;;;;;16.73;83.77;99681.53;5056289;28;20032;-82
2023/09/21 04:01:34;;;;;;;0.77;0.77;;;;;;;16.69;84.13;99678.25;5055392;28;20029;-82
2023/09/21 04:04:07;;;;;;;1.25;1.15;;;;;;;16.68;84.06;99673.94;5056271;28;20028;-82
2023/09/21 04:06:33;;;;;;;1.10;1.00;;;;;;;16.64;84.58;99670.66;5055781;28;20032;-81
2023/09/21 04:08:59;;;;;;;1.30;1.20;;;;;;;16.64;84.48;99669.84;5056393;28;20021;-81
2023/09/21 04:11:26;;;;;;;1.85;1.40;;;;;;;16.55;84.23;99655.50;5056120;28;20033;-82
2023/09/21 04:13:51;;;;;;;1.50;1.40;;;;;;;16.65;84.28;99668.91;5055085;28;20036;-81
2023/09/21 04:16:17;;;;;;;1.40;1.30;;;;;;;16.70;84.08;99684.34;5056030;28;20025;-82
2023/09/21 04:18:42;;;;;;;1.60;1.50;;;;;;;16.71;84.85;99673.75;5056112;28;20125;-81
2023/09/21 04:21:08;;;;;;;1.47;1.37;;;;;;;16.74;84.55;99673.59;5054747;28;20091;-81
2023/09/21 04:23:34;;;;;;;2.65;1.60;;;;;;;16.78;84.36;99675.06;5055761;28;20549;-81
2023/09/21 04:25:59;;;;;;;2.10;1.83;;;;;;;16.85;84.16;99670.31;5055917;28;20112;-82
2023/09/21 04:28:24;;;;;;;2.17;1.80;;;;;;;16.90;83.95;99673.50;5054735;28;20067;-82
2023/09/21 04:30:50;;;;;;;2.00;1.80;;;;;;;16.95;84.05;99671.47;5055422;28;20025;-82
2023/09/21 04:33:16;;;;;;;3.47;1.80;;;;;;;17.00;83.64;99676.41;5055306;28;20049;-82
2023/09/21 04:35:41;;;;;;;1.80;1.70;;;;;;;16.98;83.87;99667.84;5055283;28;20028;-81
2023/09/21 04:38:08;;;;;;;2.87;2.10;;;;;;;17.06;83.51;99665.59;5055502;28;20029;-81
2023/09/21 04:40:39;;;;;;;2.97;2.00;;;;;;;17.00;83.69;99649.38;5052451;28;20090;-81
2023/09/21 04:43:05;;;;;;;2.50;2.00;;;;;;;17.04;83.53;99646.47;5054501;28;20025;-82
2023/09/21 04:45:32;;;;;;;3.03;2.00;;;;;;;17.17;83.29;99654.41;5055429;28;20017;-82
2023/09/21 04:48:04;;;;;;;2.45;2.00;;;;;;;17.24;83.54;99652.25;5055421;28;20112;-81
2023/09/21 04:50:29;;;;;;;2.33;1.83;;;;;;;17.23;83.51;99653.19;5074293;28;20158;-82
2023/09/21 04:52:54;;;;;;;1.70;1.60;;;;;;;17.24;82.88;99649.63;5072173;28;20131;-82
2023/09/21 04:55:20;;;;;;;2.57;1.90;;;;;;;17.28;83.03;99651.16;5074476;28;20109;-82
2023/09/21 04:57:46;;;;;;;2.80;2.20;;;;;;;17.32;83.76;99655.28;5073497;28;20031;-81
2023/09/21 05:00:13;;;;;;;2.50;2.00;;;;;;;17.35;83.04;99652.44;5074783;28;20737;-81
2023/09/21 05:02:39;;;;;;;2.38;2.05;;;;;;;17.38;83.63;99657.50;5074719;28;20098;-81
2023/09/21 05:05:07;;;;;;;2.80;2.10;;;;;;;17.38;83.50;99654.88;5074160;28;20033;-82
2023/09/21 05:07:35;;;;;;;3.25;2.20;;;;;;;17.35;83.07;99648.97;5074653;28;20019;-81
2023/09/21 05:10:00;;;;;;;2.65;2.30;;;;;;;17.42;84.17;99656.38;5074463;28;20027;-81
2023/09/21 05:12:27;;;;;;;3.00;2.10;;;;;;;17.41;84.06;99646.81;5074741;28;20119;-81
2023/09/21 05:14:52;;;;;;;3.72;2.13;;;;;;;17.43;83.99;99652.81;5074794;28;20033;-82
2023/09/21 05:17:18;;;;;;;2.57;2.00;;;;;;;17.42;83.62;99639.78;5073142;28;20513;-81
2023/09/21 05:19:44;;;;;;;2.80;2.10;;;;;;;17.44;84.08;99635.28;5074795;28;20362;-81
2023/09/21 05:22:09;;;;;;;2.42;1.92;;;;;;;17.43;84.34;99631.84;5074731;28;20020;-81
2023/09/21 05:24:36;;;;;;;2.60;2.00;;;;;;;17.45;84.14;99639.59;5074009;28;20055;-81
2023/09/21 05:27:01;;;;;;;2.63;2.00;;;;;;;17.47;84.12;99642.09;5074498;28;20027;-82
2023/09/21 05:29:27;;;;;;;2.10;1.90;;;;;;;17.46;84.44;99636.03;5074433;28;20029;-81
2023/09/21 05:31:52;;;;;;;2.20;2.00;;;;;;;17.49;84.22;99637.63;5074103;28;20040;-82
2023/09/21 05:34:17;;;;;;;1.97;1.77;;;;;;;17.50;83.70;99637.53;5074386;28;20017;-80
2023/09/21 05:36:47;;;;;;;2.60;2.00;;;;;;;17.55;84.11;99632.00;5074515;28;20096;-80
2023/09/21 05:39:16;;;;;;;3.78;2.47;;;;;;;17.58;83.60;99639.66;5073672;28;20031;-80
2023/09/21 05:41:54;;;;;;;3.83;2.28;;;;;;;17.65;83.55;99647.97;5074604;28;20033;-81
2023/09/21 05:44:22;;;;;;;3.58;2.50;;;;;;;17.64;83.20;99614.81;5072593;28;20017;-81
2023/09/21 05:46:49;;;;;;;3.75;2.10;;;;;;;17.76;83.43;99637.63;5053464;28;20036;-81
2023/09/21 05:49:22;;;;;;;2.97;2.17;;;;;;;17.78;82.25;99629.66;5053966;28;20025;-81
2023/09/21 05:51:48;;;;;;;3.75;2.10;;;;;;;17.85;83.09;99637.03;5054252;28;20032;-81
2023/09/21 05:54:19;;;;;;;2.95;2.17;;;;;;;17.90;82.97;99634.13;5053988;28;20025;-82
2023/09/21 05:56:47;;;;;;;3.25;2.38;;;;;;;17.90;82.98;99642.00;5054103;28;20111;-82
2023/09/21 05:59:12;;;;;;;3.40;2.30;;;;;;;17.90;82.94;99639.38;5053588;28;20032;-82
2023/09/21 06:01:38;;;;;;;2.83;2.30;;;;;;;17.89;83.67;99641.13;5053695;28;20462;-83
2023/09/21 06:04:03;;;;;;;4.03;2.10;;;;;;;17.84;84.14;99634.50;5053647;28;20025;-82
2023/09/21 06:06:30;;;;;;;3.53;2.23;;;;;;;17.80;85.00;99633.00;5052508;28;20021;-80
2023/09/21 06:08:56;;;;;;;3.38;2.40;;;;;;;17.74;86.66;99639.50;5053838;28;20048;-82
2023/09/21 06:11:29;;;;;;;4.43;2.40;;;;;;;17.74;85.75;99634.25;5053353;28;20055;-81
2023/09/21 06:13:54;;;;;;;3.50;2.30;;;;;;;17.71;87.71;99645.78;5053196;28;20044;-83
2023/09/21 06:16:21;;;;;;;3.17;2.20;;;;;;;17.67;86.74;99638.22;5053713;28;20021;-83
2023/09/21 06:18:48;;;;;;;3.33;2.28;;;;;;;17.63;87.49;99647.22;5052787;28;20532;-83
2023/09/21 06:21:14;;;;;;;3.75;2.30;;;;;;;17.53;87.90;99650.44;5054707;28;20031;-83
2023/09/21 06:23:40;;;;;;;3.42;2.33;;;;;;;17.45;89.09;99650.09;5073660;28;20469;-83
2023/09/21 06:26:05;;;;;;;3.40;2.38;;;;;;;17.33;89.50;99651.72;5073589;28;20024;-82
2023/09/21 06:28:31;;;;;;;2.83;2.00;;;;;;;17.28;90.47;99649.34;5073076;28;20411;-83
2023/09/21 06:30:56;;;;;;;2.70;2.10;;;;;;;17.18;91.80;99650.88;5073072;28;20392;-83
2023/09/21 06:33:24;;;;;;;2.20;2.00;;;;;;;17.07;91.86;99640.19;5073164;28;20358;-83
2023/09/21 06:35:49;;;;;;;3.47;2.10;;;;;;;17.04;93.68;99650.91;5072652;28;20027;-83
2023/09/21 06:38:15;;;;;;;2.63;2.30;;;;;;;16.97;93.16;99650.44;5073108;28;20025;-83
2023/09/21 06:40:40;;;;;;;2.03;1.83;;;;;;;16.89;93.92;99650.84;5073246;28;20079;-83
2023/09/21 06:43:08;;;;;;;2.57;2.23;;;;;;;16.90;94.76;99651.69;5072445;28;20029;-83
2023/09/21 06:45:34;;;;;;;2.55;1.88;;;;;;;16.85;95.54;99646.72;5063599;28;20021;-83
2023/09/21 06:48:05;;;;;;;3.43;2.20;;;;;;;16.87;94.96;99651.91;5053119;28;20033;-83
2023/09/21 06:50:30;;;;;;;3.33;2.25;;;;;;;16.86;95.68;99660.69;5064458;28;20029;-83
2023/09/21 06:52:56;;;;;;;4.43;2.30;;;;;;;16.84;97.62;99655.53;5053045;28;20168;-83
2023/09/21 06:55:21;;;;;;;6.30;2.60;;;;;;;16.74;97.15;99655.25;5052132;28;20021;-81
2023/09/21 06:57:46;;;;;;;3.73;2.60;;;;;;;16.78;98.79;99666.38;5052634;28;20029;-83
2023/09/21 07:00:13;;;;;;;3.47;2.23;;;;;;;16.75;98.57;99682.28;5052971;28;20110;-83
2023/09/21 07:02:38;;;;;;;3.53;2.33;;;;;;;16.73;100.00;99682.38;5052093;28;20037;-82
2023/09/21 07:05:04;;;;;;;3.27;2.13;;;;;;;16.67;99.46;99670.50;5052831;28;20504;-82
2023/09/21 07:07:31;;;;;;;3.23;2.50;;;;;;;16.62;100.00;99671.69;5052644;28;20091;-82
2023/09/21 07:09:56;;;;;;;3.72;2.55;;;;;;;16.57;100.00;99677.22;5052332;28;20104;-82
2023/09/21 07:12:24;;;;;;;3.57;2.40;;;;;;;16.52;100.00;99674.88;5052678;28;20144;-82
2023/09/21 07:14:50;;;;;;;2.53;2.10;;;;;;;16.44;100.00;99663.97;5052727;28;20053;-83
2023/09/21 07:17:16;;;;;;;2.40;2.10;;;;;;;16.48;100.00;99670.72;5057931;28;20051;-82
2023/09/21 07:19:42;;;;;;;;;;;;;;;16.47;100.00;99666.41;5073235;28;20071;-82
2023/09/21 07:22:07;;;;;;;3.08;2.28;;;;;;;16.40;100.00;99652.00;5065123;28;19919;-82
2023/09/21 07:24:53;;;;;;;3.57;2.30;;;;;;;16.39;100.00;99655.56;5071962;28;20028;-81
2023/09/21 07:27:22;;;;;;;3.15;2.15;;;;;;;16.39;100.00;99657.31;5071945;28;20043;-81
2023/09/21 07:29:55;;;;;;;3.40;2.30;;;;;;;16.33;100.00;99642.81;5072460;28;20020;-82
2023/09/21 07:32:21;;;;;;;2.40;2.00;;;;;;;16.39;100.00;99660.81;5071521;28;20086;-82
2023/09/21 07:34:48;;;;;;;3.60;2.27;;;;;;;16.43;100.00;99658.84;5072635;28;20036;-82
2023/09/21 07:37:16;;;;;;;2.75;2.03;;;;;;;16.44;100.00;99660.53;5072624;28;20039;-82
2023/09/21 07:39:44;;;;;;;1.90;1.80;;;;;;;16.45;100.00;99663.03;5072020;28;20491;-83
2023/09/21 07:42:09;;;;;;;1.90;1.70;;;;;;;16.50;100.00;99668.88;5072136;28;20415;-81
2023/09/21 07:44:35;;;;;;;1.60;1.50;;;;;;;16.53;100.00;99662.59;5071304;28;20021;-81
2023/09/21 07:47:00;;;;;;;2.10;1.83;;;;;;;16.51;100.00;99662.69;5052065;28;20025;-82
2023/09/21 07:49:25;;;;;;;1.83;1.73;;;;;;;16.52;100.00;99676.63;5052442;28;20104;-83
2023/09/21 07:51:55;;;;;;;1.80;1.40;;;;;;;16.52;100.00;99679.25;5051531;28;20029;-82
2023/09/21 07:54:21;;;;;;;1.63;1.30;;;;;;;16.55;100.00;99678.25;5051797;28;20021;-82
2023/09/21 07:56:46;;;;;;;1.85;1.40;;;;;;;16.51;100.00;99672.31;5052411;28;20049;-83
2023/09/21 07:59:12;;;;;;;1.40;1.30;;;;;;;16.50;100.00;99674.09;5051498;28;20379;-82
2023/09/21 08:01:37;;;;;;;1.30;1.20;;;;;;;16.52;100.00;99674.00;5051786;28;20104;-82
2023/09/21 08:04:03;;;;;;;1.07;1.00;;;;;;;16.51;100.00;99678.41;5052253;28;20013;-81
2023/09/21 08:06:28;;;;;;;1.13;1.13;;;;;;;16.54;100.00;99673.94;5051600;28;20087;-82
2023/09/21 08:08:54;;;;;;;2.17;1.33;;;;;;;16.59;100.00;99688.44;5052033;28;20037;-82
2023/09/21 08:11:20;;;;;;;1.45;1.30;;;;;;;16.60;100.00;99692.75;5051816;28;20029;-82
2023/09/21 08:13:45;;;;;;;1.43;1.33;;;;;;;16.61;100.00;99688.34;5052723;28;20066;-82
2023/09/21 08:16:10;;;;;;;1.30;1.20;;;;;;;16.60;100.00;99697.13;5051614;28;20028;-82
2023/09/21 08:18:39;;;;;;;0.97;0.97;;;;;;;16.57;100.00;99703.41;5051848;28;20379;-82
2023/09/21 08:21:06;;;;;;;1.15;1.15;;;;;;;16.58;100.00;99704.22;5051389;28;20029;-82
2023/09/21 08:23:32;;;;;;;0.73;0.73;;;;;;;16.55;100.00;99697.41;5052265;28;20479;-82
2023/09/21 08:25:58;;;;;;;0.70;0.70;;;;;;;16.57;100.00;99697.31;5052157;28;20017;-82
2023/09/21 08:28:24;;;;;;;0.88;0.88;;;;;;;16.53;100.00;99709.75;5051000;28;20056;-82
2023/09/21 08:30:50;;;;;;;1.20;1.10;;;;;;;16.54;100.00;99718.47;5052011;28;20029;-82
2023/09/21 08:33:17;;;;;;;0.90;0.90;;;;;;;16.51;100.00;99725.56;5051733;28;20071;-82
2023/09/21 08:35:43;;;;;;;1.27;1.17;;;;;;;16.49;100.00;99730.03;5051088;28;20474;-82
2023/09/21 08:38:09;;;;;;;1.42;0.70;;;;;;;16.50;100.00;99736.09;5051707;28;20021;-82
2023/09/21 08:40:37;;;;;;;0.82;0.82;;;;;;;16.52;100.00;99744.72;5052346;28;20087;-82
2023/09/21 08:43:04;;;;;;;0.93;0.93;;;;;;;16.47;100.00;99737.13;5055729;28;20033;-81
2023/09/21 08:45:39;;;;;;;1.08;1.00;;;;;;;16.48;100.00;99745.84;5055316;28;20100;-82
2023/09/21 08:48:15;;;;;;;0.77;0.77;;;;;;;16.33;100.00;99726.59;5054838;28;20021;-82
2023/09/21 08:50:41;;;;;;;0.73;0.73;;;;;;;16.41;100.00;99755.81;5055484;28;20017;-83
2023/09/21 08:53:12;;;;;;;0.77;0.77;;;;;;;16.41;100.00;99761.06;5055182;28;20519;-80
2023/09/21 08:55:38;;;;;;;0.52;0.52;;;;;;;16.43;100.00;99761.81;5054489;28;20053;-81
2023/09/21 08:58:09;;;;;;;0.80;0.80;;;;;;;16.44;100.00;99765.28;5055005;28;20082;-81
2023/09/21 09:00:36;;;;;;;0.60;0.60;;;;;;;16.45;100.00;99764.34;5055363;28;20100;-81
2023/09/21 09:03:02;;;;;;;0.57;0.57;;;;;;;16.43;100.00;99760.97;5054252;28;20405;-81
2023/09/21 09:05:27;;;;;;;0.43;0.43;;;;;;;16.42;100.00;99762.75;5055280;28;20029;-81
2023/09/21 09:07:52;;;;;;;0.37;0.37;;;;;;;16.40;100.00;99762.00;5055266;28;20035;-82
2023/09/21 09:10:18;;;;;;;0.50;0.50;;;;;;;16.39;100.00;99749.81;5067144;28;20067;-81
2023/09/21 09:12:43;;;;;;;0.70;0.70;;;;;;;16.39;100.00;99749.81;5059522;28;20037;-77
2023/09/21 09:15:09;;;;;;;0.50;0.50;;;;;;;16.40;100.00;99758.50;5054841;28;20021;-81
2023/09/21 09:17:36;;;;;;;1.15;1.05;;;;;;;16.39;100.00;99762.06;5055439;28;20108;-82
2023/09/21 09:20:09;;;;;;;1.10;1.02;;;;;;;16.27;100.00;99753.13;5054870;28;20028;-81
2023/09/21 09:22:35;;;;;;;1.40;1.30;;;;;;;16.17;100.00;99764.13;5054714;28;20017;-81
2023/09/21 09:25:05;;;;;;;1.50;1.40;;;;;;;16.02;100.00;99755.38;5054011;28;20112;-81
2023/09/21 09:27:32;;;;;;;1.95;1.45;;;;;;;15.94;100.00;99754.09;5054541;28;20021;-81
2023/09/21 09:30:00;;;;;;;;;;;;;;;15.86;100.00;99742.28;5054159;28;20493;-80
2023/09/21 09:32:35;;;;;;;1.40;1.30;;;;;;;15.87;100.00;99725.66;5054152;28;19913;-81
2023/09/21 09:35:02;;;;;;;1.10;1.00;;;;;;;15.97;100.00;99738.22;5055720;28;20029;-80
2023/09/21 09:37:28;;;;;;;0.70;0.70;;;;;;;16.01;100.00;99737.13;5053591;28;20060;-81
2023/09/21 09:39:53;;;;;;;0.90;0.90;;;;;;;16.04;100.00;99729.94;5058982;28;20433;-81
2023/09/21 09:42:19;;;;;;;0.73;0.73;;;;;;;16.08;100.00;99725.41;5053930;28;20079;-81
2023/09/21 09:44:45;;;;;;;1.00;0.90;;;;;;;16.16;100.00;99735.41;5054300;28;20119;-81
2023/09/21 09:47:14;;;;;;;;;;;;;;;16.20;100.00;99729.94;5054568;28;20017;-81
2023/09/21 09:49:44;;;;;;;0.57;0.57;;;;;;;16.15;100.00;99721.50;5054145;28;19919;-81
2023/09/21 09:52:13;;;;;;;0.60;0.60;;;;;;;16.28;100.00;99737.34;5052966;28;20523;-81
2023/09/21 09:54:39;;;;;;;0.50;0.50;;;;;;;16.34;100.00;99742.25;5054381;28;20103;-81
2023/09/21 09:57:11;;;;;;;0.88;0.60;;;;;;;16.39;100.00;99735.88;5054014;28;20389;-81
2023/09/21 09:59:37;;;;;;;1.25;0.88;;;;;;;16.35;100.00;99735.22;5053487;28;20558;-82
2023/09/21 10:02:07;;;;;;;1.10;0.90;;;;;;;16.33;100.00;99729.22;5053661;28;20501;-80
2023/09/21 10:04:35;;;;;;;1.63;1.30;;;;;;;16.21;100.00;99722.91;5054193;28;20100;-83
2023/09/21 10:07:02;;;;;;;2.08;1.55;;;;;;;16.01;100.00;99718.78;5053415;28;20025;-82
2023/09/21 10:09:28;;;;;;;1.45;1.35;;;;;;;15.98;100.00;99716.38;5053976;28;20028;-81
2023/09/21 10:11:55;;;;;;;1.20;1.10;;;;;;;16.02;100.00;99713.50;5066197;28;20033;-82
2023/09/21 10:14:23;;;;;;;1.58;1.48;;;;;;;16.09;100.00;99705.28;5072259;28;20028;-82
2023/09/21 10:16:55;;;;;;;1.38;1.17;;;;;;;16.12;100.00;99715.59;5073724;28;20028;-82
2023/09/21 10:19:26;;;;;;;1.90;1.38;;;;;;;16.11;100.00;99708.66;5071004;28;20457;-82
2023/09/21 10:21:56;;;;;;;1.35;1.23;;;;;;;16.12;100.00;99705.13;5072347;28;20029;-82
2023/09/21 10:24:26;;;;;;;1.30;1.20;;;;;;;16.20;100.00;99703.75;5073535;28;20020;-82
2023/09/21 10:26:53;;;;;;;1.00;1.00;;;;;;;16.23;100.00;99694.88;5073090;28;20031;-82
2023/09/21 10:29:20;;;;;;;1.90;1.80;;;;;;;16.29;100.00;99706.78;5073464;28;20028;-82
2023/09/21 10:31:56;;;;;;;2.22;1.60;;;;;;;16.33;100.00;99700.41;5072858;28;20078;-82
2023/09/21 10:34:24;;;;;;;2.30;2.10;;;;;;;16.28;100.00;99700.69;5071801;28;20078;-82
2023/09/21 10:36:58;;;;;;;3.13;2.40;;;;;;;16.28;100.00;99698.06;5073443;28;20040;-82
2023/09/21 10:39:24;;;;;;;2.33;2.10;;;;;;;16.29;100.00;99701.53;5072752;28;20031;-82
2023/09/21 10:42:12;;;;;;;2.00;1.83;;;;;;;16.38;100.00;99697.56;5072441;28;20039;-82
2023/09/21 10:44:53;;;;;;;1.60;1.50;;;;;;;16.43;100.00;99692.88;5071914;28;20032;-82
2023/09/21 10:47:30;;;;;;;1.25;1.15;;;;;;;16.51;100.00;99686.28;5072192;28;20481;-81
2023/09/21 10:50:02;;;;;;;1.15;1.15;;;;;;;16.59;100.00;99684.97;5073467;28;20028;-82
2023/09/21 10:52:28;;;;;;;1.00;1.00;;;;;;;16.68;100.00;99682.66;5072704;28;20028;-82
2023/09/21 10:54:57;;;;;;;0.98;0.98;;;;;;;16.73;100.00;99679.75;5072747;28;20032;-82
2023/09/21 10:57:27;;;;;;;1.50;1.40;;;;;;;16.82;100.00;99668.72;5072823;28;20029;-82
2023/09/21 10:59:53;;;;;;;2.10;1.70;;;;;;;16.87;100.00;99662.38;5072597;28;20027;-82
2023/09/21 11:02:20;;;;;;;3.83;2.20;;;;;;;16.95;100.00;99657.53;5071723;28;20044;-82
2023/09/21 11:04:50;;;;;;;2.60;2.00;;;;;;;17.01;100.00;99649.28;5072413;28;20543;-82
2023/09/21 11:07:18;;;;;;;4.15;2.10;;;;;;;17.04;100.00;99643.84;5071878;28;20058;-81
2023/09/21 11:09:44;;;;;;;2.10;1.88;;;;;;;17.11;100.00;99639.91;5072051;28;20024;-82
2023/09/21 11:12:18;;;;;;;1.70;1.60;;;;;;;17.12;100.00;99622.41;5072891;28;20070;-82
2023/09/21 11:14:45;;;;;;;2.10;1.90;;;;;;;17.25;100.00;99635.59;5065721;28;20040;-82
2023/09/21 11:17:16;;;;;;;2.55;1.77;;;;;;;17.26;100.00;99626.78;5051598;28;20025;-82
2023/09/21 11:19:42;;;;;;;2.05;1.85;;;;;;;17.34;100.00;99631.56;5052517;28;20385;-82
2023/09/21 11:22:09;;;;;;;2.00;1.90;;;;;;;17.43;100.00;99636.22;5052712;28;20159;-81
2023/09/21 11:24:38;;;;;;;2.13;1.92;;;;;;;17.45;100.00;99640.41;5052061;28;20027;-82
2023/09/21 11:27:09;;;;;;;1.75;1.65;;;;;;;17.47;100.00;99629.84;5052410;28;20021;-82
2023/09/21 11:29:34;;;;;;;2.17;1.95;;;;;;;17.51;100.00;99630.50;5051278;28;20036;-81
2023/09/21 11:32:00;;;;;;;3.07;1.90;;;;;;;17.57;100.00;99630.09;5052513;28;20021;-82
2023/09/21 11:34:26;;;;;;;1.73;1.63;;;;;;;17.59;100.00;99634.31;5052440;28;20028;-82